sensor_id;sensor_type;location;lat;lon;timestamp;pressure;altitude;pressure_sealevel;temperature;humidity
62201;BME280;48197;42.732;27.192;2023-02-23T00:01:40;99814.81;;;6.94;85.84
62201;BME280;48197;42.732;27.192;2023-02-23T00:04:01;99810.03;;;6.88;85.91
62201;BME280;48197;42.732;27.192;2023-02-23T00:06:28;99809.97;;;6.81;87.39
62201;BME280;48197;42.732;27.192;2023-02-23T00:08:54;99808.38;;;6.80;87.25
62201;BME280;48197;42.732;27.192;2023-02-23T00:11:23;99808.31;;;6.72;88.26
62201;BME280;48197;42.732;27.192;2023-02-23T00:13:49;99808.69;;;6.71;88.67
62201;BME280;48197;42.732;27.192;2023-02-23T00:16:17;99807.84;;;6.67;88.63
62201;BME280;48197;42.732;27.192;2023-02-23T00:18:45;99804.63;;;6.58;89.70
62201;BME280;48197;42.732;27.192;2023-02-23T00:21:20;99806.53;;;6.57;89.63
62201;BME280;48197;42.732;27.192;2023-02-23T00:23:50;99811.56;;;6.48;90.79
62201;BME280;48197;42.732;27.192;2023-02-23T00:26:20;99808.31;;;6.39;91.73
62201;BME280;48197;42.732;27.192;2023-02-23T00:28:48;99809.81;;;6.32;93.92
62201;BME280;48197;42.732;27.192;2023-02-23T00:31:18;99810.94;;;6.31;95.56
62201;BME280;48197;42.732;27.192;2023-02-23T00:33:48;99808.63;;;6.33;97.37
62201;BME280;48197;42.732;27.192;2023-02-23T00:36:17;99807.91;;;6.37;98.28
62201;BME280;48197;42.732;27.192;2023-02-23T00:38:43;99810.94;;;6.31;98.82
62201;BME280;48197;42.732;27.192;2023-02-23T00:41:11;99808.97;;;6.28;100.00
62201;BME280;48197;42.732;27.192;2023-02-23T00:43:39;99806.03;;;6.14;100.00
62201;BME280;48197;42.732;27.192;2023-02-23T00:46:16;99810.19;;;6.01;100.00
62201;BME280;48197;42.732;27.192;2023-02-23T00:48:44;99803.75;;;5.93;100.00
62201;BME280;48197;42.732;27.192;2023-02-23T00:51:10;99806.00;;;5.84;100.00
62201;BME280;48197;42.732;27.192;2023-02-23T00:53:38;99801.19;;;5.77;100.00
62201;BME280;48197;42.732;27.192;2023-02-23T00:56:04;99798.31;;;5.66;100.00
62201;BME280;48197;42.732;27.192;2023-02-23T00:58:31;99794.97;;;5.53;100.00
62201;BME280;48197;42.732;27.192;2023-02-23T01:00:58;99800.41;;;5.50;100.00
62201;BME280;48197;42.732;27.192;2023-02-23T01:03:25;99799.50;;;5.42;100.00
62201;BME280;48197;42.732;27.192;2023-02-23T01:05:51;99789.34;;;5.43;100.00
62201;BME280;48197;42.732;27.192;2023-02-23T01:08:20;99797.88;;;5.38;100.00
62201;BME280;48197;42.732;27.192;2023-02-23T01:10:49;99792.41;;;5.38;100.00
62201;BME280;48197;42.732;27.192;2023-02-23T01:13:19;99795.44;;;5.32;100.00
62201;BME280;48197;42.732;27.192;2023-02-23T01:15:46;99799.63;;;5.26;100.00
62201;BME280;48197;42.732;27.192;2023-02-23T01:18:17;99795.84;;;5.35;100.00
62201;BME280;48197;42.732;27.192;2023-02-23T01:20:44;99786.31;;;5.25;100.00
62201;BME280;48197;42.732;27.192;2023-02-23T01:23:14;99795.00;;;5.07;100.00
62201;BME280;48197;42.732;27.192;2023-02-23T01:25:42;99801.59;;;5.03;100.00
62201;BME280;48197;42.732;27.192;2023-02-23T01:28:10;99794.03;;;4.96;100.00
62201;BME280;48197;42.732;27.192;2023-02-23T01:30:36;99796.84;;;5.00;100.00
62201;BME280;48197;42.732;27.192;2023-02-23T01:33:03;99791.78;;;5.02;100.00
62201;BME280;48197;42.732;27.192;2023-02-23T01:35:30;99795.56;;;4.94;100.00
62201;BME280;48197;42.732;27.192;2023-02-23T01:37:58;99795.63;;;4.97;100.00
62201;BME280;48197;42.732;27.192;2023-02-23T01:40:25;99792.59;;;5.02;100.00
62201;BME280;48197;42.732;27.192;2023-02-23T01:42:58;99799.03;;;5.14;100.00
62201;BME280;48197;42.732;27.192;2023-02-23T01:45:29;99794.72;;;5.13;100.00
62201;BME280;48197;42.732;27.192;2023-02-23T01:48:02;99790.94;;;5.21;100.00
62201;BME280;48197;42.732;27.192;2023-02-23T01:50:33;99791.06;;;5.28;100.00
62201;BME280;48197;42.732;27.192;2023-02-23T01:53:02;99793.72;;;5.24;100.00
62201;BME280;48197;42.732;27.192;2023-02-23T01:55:29;99789.72;;;5.18;100.00
62201;BME280;48197;42.732;27.192;2023-02-23T01:57:56;99798.59;;;5.11;100.00
62201;BME280;48197;42.732;27.192;2023-02-23T02:00:26;99796.97;;;5.07;100.00
62201;BME280;48197;42.732;27.192;2023-02-23T02:02:53;99801.41;;;5.15;100.00
62201;BME280;48197;42.732;27.192;2023-02-23T02:05:20;99800.84;;;5.29;100.00
62201;BME280;48197;42.732;27.192;2023-02-23T02:07:48;99802.88;;;5.32;100.00
62201;BME280;48197;42.732;27.192;2023-02-23T02:10:15;99804.44;;;5.33;100.00
62201;BME280;48197;42.732;27.192;2023-02-23T02:12:45;99800.19;;;5.36;100.00
62201;BME280;48197;42.732;27.192;2023-02-23T02:15:12;99800.28;;;5.43;100.00
62201;BME280;48197;42.732;27.192;2023-02-23T02:18:27;99800.34;;;5.46;100.00
62201;BME280;48197;42.732;27.192;2023-02-23T02:20:39;99802.97;;;5.39;100.00
62201;BME280;48197;42.732;27.192;2023-02-23T02:25:42;99804.94;;;5.39;100.00
62201;BME280;48197;42.732;27.192;2023-02-23T02:41:56;99803.09;;;5.46;100.00
62201;BME280;48197;42.732;27.192;2023-02-23T02:44:36;99802.09;;;5.31;100.00
62201;BME280;48197;42.732;27.192;2023-02-23T02:47:06;99801.06;;;5.17;100.00
62201;BME280;48197;42.732;27.192;2023-02-23T02:49:57;99795.88;;;5.11;100.00
62201;BME280;48197;42.732;27.192;2023-02-23T02:52:23;99803.78;;;5.17;100.00
62201;BME280;48197;42.732;27.192;2023-02-23T02:54:54;99809.44;;;5.04;100.00
62201;BME280;48197;42.732;27.192;2023-02-23T02:57:24;99797.88;;;4.91;100.00
62201;BME280;48197;42.732;27.192;2023-02-23T02:59:51;99803.22;;;4.84;100.00
62201;BME280;48197;42.732;27.192;2023-02-23T03:02:37;99805.53;;;4.82;100.00
62201;BME280;48197;42.732;27.192;2023-02-23T03:05:41;99805.59;;;4.86;100.00
62201;BME280;48197;42.732;27.192;2023-02-23T03:08:48;99798.38;;;4.97;100.00
62201;BME280;48197;42.732;27.192;2023-02-23T03:11:34;99803.41;;;5.18;100.00
62201;BME280;48197;42.732;27.192;2023-02-23T03:14:26;99799.69;;;5.30;100.00
62201;BME280;48197;42.732;27.192;2023-02-23T03:35:06;99816.47;;;5.78;100.00
62201;BME280;48197;42.732;27.192;2023-02-23T03:37:55;99819.34;;;5.85;100.00
62201;BME280;48197;42.732;27.192;2023-02-23T03:40:43;99823.41;;;5.95;100.00
62201;BME280;48197;42.732;27.192;2023-02-23T03:43:34;99823.53;;;6.02;100.00
62201;BME280;48197;42.732;27.192;2023-02-23T03:46:20;99826.31;;;6.06;100.00
62201;BME280;48197;42.732;27.192;2023-02-23T03:49:08;99830.69;;;6.10;100.00
62201;BME280;48197;42.732;27.192;2023-02-23T03:51:56;99826.50;;;6.20;100.00
62201;BME280;48197;42.732;27.192;2023-02-23T03:54:59;99828.94;;;6.25;100.00
62201;BME280;48197;42.732;27.192;2023-02-23T03:57:45;99835.34;;;6.37;100.00
62201;BME280;48197;42.732;27.192;2023-02-23T04:00:35;99839.38;;;6.46;100.00
62201;BME280;48197;42.732;27.192;2023-02-23T04:03:22;99837.47;;;6.50;100.00
62201;BME280;48197;42.732;27.192;2023-02-23T04:06:08;99837.88;;;6.52;100.00
62201;BME280;48197;42.732;27.192;2023-02-23T04:08:55;99829.63;;;6.49;100.00
62201;BME280;48197;42.732;27.192;2023-02-23T04:11:50;99836.63;;;6.46;100.00
62201;BME280;48197;42.732;27.192;2023-02-23T04:14:42;99842.94;;;6.47;100.00
62201;BME280;48197;42.732;27.192;2023-02-23T04:17:11;99839.34;;;6.43;100.00
62201;BME280;48197;42.732;27.192;2023-02-23T04:19:38;99835.44;;;6.44;100.00
62201;BME280;48197;42.732;27.192;2023-02-23T04:22:04;99835.06;;;6.45;100.00
62201;BME280;48197;42.732;27.192;2023-02-23T04:24:31;99833.84;;;6.43;100.00
62201;BME280;48197;42.732;27.192;2023-02-23T04:26:57;99838.56;;;6.42;100.00
62201;BME280;48197;42.732;27.192;2023-02-23T04:29:23;99830.34;;;6.42;100.00
62201;BME280;48197;42.732;27.192;2023-02-23T04:31:50;99838.16;;;6.40;100.00
62201;BME280;48197;42.732;27.192;2023-02-23T04:34:16;99836.97;;;6.41;100.00
62201;BME280;48197;42.732;27.192;2023-02-23T04:36:43;99829.94;;;6.44;100.00
62201;BME280;48197;42.732;27.192;2023-02-23T04:39:09;99839.78;;;6.48;100.00
62201;BME280;48197;42.732;27.192;2023-02-23T04:41:36;99830.88;;;6.55;100.00
62201;BME280;48197;42.732;27.192;2023-02-23T04:44:02;99835.25;;;6.60;100.00
62201;BME280;48197;42.732;27.192;2023-02-23T04:46:30;99837.63;;;6.65;100.00
62201;BME280;48197;42.732;27.192;2023-02-23T04:48:56;99834.53;;;6.70;100.00
62201;BME280;48197;42.732;27.192;2023-02-23T04:51:23;99836.16;;;6.71;100.00
62201;BME280;48197;42.732;27.192;2023-02-23T04:53:49;99837.41;;;6.77;100.00
62201;BME280;48197;42.732;27.192;2023-02-23T04:56:16;99839.78;;;6.82;100.00
62201;BME280;48197;42.732;27.192;2023-02-23T04:58:42;99837.81;;;6.83;100.00
62201;BME280;48197;42.732;27.192;2023-02-23T05:01:09;99839.06;;;6.89;100.00
62201;BME280;48197;42.732;27.192;2023-02-23T05:03:36;99834.81;;;6.91;100.00
62201;BME280;48197;42.732;27.192;2023-02-23T05:06:03;99841.88;;;6.92;100.00
62201;BME280;48197;42.732;27.192;2023-02-23T05:08:30;99839.13;;;6.92;100.00
62201;BME280;48197;42.732;27.192;2023-02-23T05:10:56;99845.75;;;6.88;100.00
62201;BME280;48197;42.732;27.192;2023-02-23T05:13:23;99849.41;;;6.99;100.00
62201;BME280;48197;42.732;27.192;2023-02-23T05:15:49;99857.31;;;7.04;100.00
62201;BME280;48197;42.732;27.192;2023-02-23T05:18:16;99862.03;;;7.07;100.00
62201;BME280;48197;42.732;27.192;2023-02-23T05:20:43;99863.63;;;7.08;100.00
62201;BME280;48197;42.732;27.192;2023-02-23T05:23:12;99868.81;;;7.17;100.00
62201;BME280;48197;42.732;27.192;2023-02-23T05:25:39;99869.16;;;7.12;100.00
62201;BME280;48197;42.732;27.192;2023-02-23T05:28:06;99877.50;;;7.23;100.00
62201;BME280;48197;42.732;27.192;2023-02-23T05:30:32;99878.00;;;7.32;100.00
62201;BME280;48197;42.732;27.192;2023-02-23T05:32:59;99885.06;;;7.33;100.00
62201;BME280;48197;42.732;27.192;2023-02-23T05:35:26;99889.50;;;7.45;100.00
62201;BME280;48197;42.732;27.192;2023-02-23T05:37:52;99896.94;;;7.44;100.00
62201;BME280;48197;42.732;27.192;2023-02-23T05:40:19;99896.22;;;7.51;100.00
62201;BME280;48197;42.732;27.192;2023-02-23T05:42:57;99898.19;;;7.47;100.00
62201;BME280;48197;42.732;27.192;2023-02-23T05:45:24;99900.56;;;7.52;100.00
62201;BME280;48197;42.732;27.192;2023-02-23T05:47:50;99910.44;;;7.56;100.00
62201;BME280;48197;42.732;27.192;2023-02-23T05:50:17;99917.53;;;7.61;100.00
62201;BME280;48197;42.732;27.192;2023-02-23T05:52:44;99919.91;;;7.63;100.00
62201;BME280;48197;42.732;27.192;2023-02-23T05:55:11;99923.09;;;7.65;100.00
62201;BME280;48197;42.732;27.192;2023-02-23T05:57:38;99926.63;;;7.65;100.00
62201;BME280;48197;42.732;27.192;2023-02-23T06:00:06;99926.38;;;7.81;100.00
62201;BME280;48197;42.732;27.192;2023-02-23T06:02:34;99935.91;;;7.94;100.00
62201;BME280;48197;42.732;27.192;2023-02-23T06:05:01;99939.13;;;8.04;100.00
62201;BME280;48197;42.732;27.192;2023-02-23T06:07:28;99941.94;;;8.11;100.00
62201;BME280;48197;42.732;27.192;2023-02-23T06:09:55;99937.63;;;8.13;100.00
62201;BME280;48197;42.732;27.192;2023-02-23T06:12:21;99948.31;;;8.22;100.00
62201;BME280;48197;42.732;27.192;2023-02-23T06:14:48;99944.81;;;8.29;100.00
62201;BME280;48197;42.732;27.192;2023-02-23T06:17:16;99946.50;;;8.44;100.00
62201;BME280;48197;42.732;27.192;2023-02-23T06:19:43;99950.50;;;8.57;100.00
62201;BME280;48197;42.732;27.192;2023-02-23T06:22:09;99954.41;;;8.53;100.00
62201;BME280;48197;42.732;27.192;2023-02-23T06:24:37;99956.00;;;8.57;100.00
62201;BME280;48197;42.732;27.192;2023-02-23T06:27:03;99957.94;;;8.50;100.00
62201;BME280;48197;42.732;27.192;2023-02-23T06:29:30;99959.19;;;8.59;100.00
62201;BME280;48197;42.732;27.192;2023-02-23T06:31:56;99958.81;;;8.65;100.00
62201;BME280;48197;42.732;27.192;2023-02-23T06:34:22;99956.94;;;8.83;100.00
62201;BME280;48197;42.732;27.192;2023-02-23T06:36:49;99962.56;;;9.05;100.00
62201;BME280;48197;42.732;27.192;2023-02-23T06:39:15;99970.06;;;9.15;100.00
62201;BME280;48197;42.732;27.192;2023-02-23T06:41:42;99961.88;;;9.40;100.00
62201;BME280;48197;42.732;27.192;2023-02-23T06:44:09;99961.88;;;9.40;100.00
62201;BME280;48197;42.732;27.192;2023-02-23T06:46:35;99969.75;;;9.42;100.00
62201;BME280;48197;42.732;27.192;2023-02-23T06:49:03;99967.84;;;9.74;100.00
62201;BME280;48197;42.732;27.192;2023-02-23T06:51:29;99973.78;;;9.84;100.00
62201;BME280;48197;42.732;27.192;2023-02-23T06:53:55;99970.59;;;9.96;100.00
62201;BME280;48197;42.732;27.192;2023-02-23T06:56:22;99970.59;;;9.78;100.00
62201;BME280;48197;42.732;27.192;2023-02-23T07:01:56;99980.06;;;9.77;100.00
62201;BME280;48197;42.732;27.192;2023-02-23T07:04:23;99969.81;;;9.70;100.00
62201;BME280;48197;42.732;27.192;2023-02-23T07:06:49;99973.31;;;9.46;100.00
62201;BME280;48197;42.732;27.192;2023-02-23T07:09:19;99971.75;;;9.52;100.00
62201;BME280;48197;42.732;27.192;2023-02-23T07:11:45;99973.72;;;9.51;100.00
62201;BME280;48197;42.732;27.192;2023-02-23T07:14:15;99977.31;;;9.73;100.00
62201;BME280;48197;42.732;27.192;2023-02-23T07:16:42;99982.06;;;9.84;100.00
62201;BME280;48197;42.732;27.192;2023-02-23T07:19:08;99981.25;;;9.97;100.00
62201;BME280;48197;42.732;27.192;2023-02-23T07:21:34;99974.16;;;9.93;100.00
62201;BME280;48197;42.732;27.192;2023-02-23T07:24:01;99977.69;;;9.65;100.00
62201;BME280;48197;42.732;27.192;2023-02-23T07:26:31;99981.25;;;9.94;100.00
62201;BME280;48197;42.732;27.192;2023-02-23T07:29:01;99981.25;;;10.19;100.00
62201;BME280;48197;42.732;27.192;2023-02-23T07:31:28;99976.94;;;10.18;100.00
62201;BME280;48197;42.732;27.192;2023-02-23T07:33:54;99976.53;;;10.01;100.00
62201;BME280;48197;42.732;27.192;2023-02-23T07:36:21;99979.69;;;10.07;100.00
62201;BME280;48197;42.732;27.192;2023-02-23T07:38:47;99983.25;;;10.40;100.00
62201;BME280;48197;42.732;27.192;2023-02-23T07:41:14;99985.56;;;10.74;100.00
62201;BME280;48197;42.732;27.192;2023-02-23T07:43:41;99983.53;;;10.81;100.00
62201;BME280;48197;42.732;27.192;2023-02-23T07:46:07;99987.88;;;10.90;100.00
62201;BME280;48197;42.732;27.192;2023-02-23T07:48:34;99979.78;;;11.35;100.00
62201;BME280;48197;42.732;27.192;2023-02-23T07:51:01;99990.94;;;11.83;100.00
62201;BME280;48197;42.732;27.192;2023-02-23T07:53:33;99985.16;;;11.67;100.00
62201;BME280;48197;42.732;27.192;2023-02-23T07:59:42;99988.09;;;12.01;100.00
62201;BME280;48197;42.732;27.192;2023-02-23T08:16:07;99987.59;;;13.85;93.63
62201;BME280;48197;42.732;27.192;2023-02-23T08:18:34;99987.91;;;13.64;95.05
62201;BME280;48197;42.732;27.192;2023-02-23T08:21:00;99992.69;;;12.60;95.52
62201;BME280;48197;42.732;27.192;2023-02-23T08:23:48;99997.59;;;12.45;99.15
62201;BME280;48197;42.732;27.192;2023-02-23T08:26:38;100004.00;;;12.35;98.26
62201;BME280;48197;42.732;27.192;2023-02-23T08:29:05;100007.97;;;12.76;99.54
62201;BME280;48197;42.732;27.192;2023-02-23T08:31:31;100002.09;;;13.08;95.40
62201;BME280;48197;42.732;27.192;2023-02-23T08:33:57;100007.00;;;12.55;97.40
62201;BME280;48197;42.732;27.192;2023-02-23T08:36:23;100007.34;;;12.16;99.17
62201;BME280;48197;42.732;27.192;2023-02-23T08:38:53;100010.69;;;12.41;99.48
62201;BME280;48197;42.732;27.192;2023-02-23T08:41:19;100012.66;;;12.44;98.17
62201;BME280;48197;42.732;27.192;2023-02-23T08:43:46;100004.75;;;13.19;96.53
62201;BME280;48197;42.732;27.192;2023-02-23T08:52:04;100011.59;;;13.41;90.95
62201;BME280;48197;42.732;27.192;2023-02-23T09:04:18;100026.00;;;12.95;92.26
62201;BME280;48197;42.732;27.192;2023-02-23T09:12:58;100038.94;;;13.46;89.36
62201;BME280;48197;42.732;27.192;2023-02-23T09:15:28;100039.09;;;13.32;90.51
62201;BME280;48197;42.732;27.192;2023-02-23T09:18:00;100037.19;;;13.87;89.34
62201;BME280;48197;42.732;27.192;2023-02-23T09:20:27;100039.69;;;14.56;84.97
62201;BME280;48197;42.732;27.192;2023-02-23T09:22:54;100039.94;;;14.14;84.36
62201;BME280;48197;42.732;27.192;2023-02-23T09:25:24;100037.19;;;13.87;86.16
62201;BME280;48197;42.732;27.192;2023-02-23T09:27:54;100048.19;;;13.94;87.98
62201;BME280;48197;42.732;27.192;2023-02-23T09:30:27;100045.84;;;14.16;85.46
62201;BME280;48197;42.732;27.192;2023-02-23T09:32:54;100040.16;;;14.00;83.67
62201;BME280;48197;42.732;27.192;2023-02-23T09:35:24;100051.50;;;13.55;85.38
62201;BME280;48197;42.732;27.192;2023-02-23T09:37:52;100044.44;;;13.77;85.90
62201;BME280;48197;42.732;27.192;2023-02-23T10:16:52;100068.06;;;12.93;79.03
62201;BME280;48197;42.732;27.192;2023-02-23T10:22:09;100063.97;;;12.63;81.51
62201;BME280;48197;42.732;27.192;2023-02-23T10:24:44;100056.34;;;12.75;80.88
62201;BME280;48197;42.732;27.192;2023-02-23T10:27:16;100062.19;;;12.84;79.36
62201;BME280;48197;42.732;27.192;2023-02-23T10:34:51;100054.16;;;12.52;81.80
62201;BME280;48197;42.732;27.192;2023-02-23T10:37:18;100060.03;;;12.61;80.33
62201;BME280;48197;42.732;27.192;2023-02-23T10:39:46;100056.38;;;12.71;80.52
62201;BME280;48197;42.732;27.192;2023-02-23T10:42:24;100059.19;;;13.05;79.71
62201;BME280;48197;42.732;27.192;2023-02-23T10:44:53;100043.81;;;13.66;77.59
62201;BME280;48197;42.732;27.192;2023-02-23T10:47:22;100054.53;;;14.45;74.72
62201;BME280;48197;42.732;27.192;2023-02-23T10:49:51;100048.25;;;14.65;70.84
62201;BME280;48197;42.732;27.192;2023-02-23T10:52:32;100049.28;;;14.00;72.10
62201;BME280;48197;42.732;27.192;2023-02-23T10:55:06;100057.94;;;13.79;73.21
62201;BME280;48197;42.732;27.192;2023-02-23T10:57:37;100056.81;;;13.73;73.86
62201;BME280;48197;42.732;27.192;2023-02-23T11:12:39;100051.31;;;13.69;73.29
62201;BME280;48197;42.732;27.192;2023-02-23T11:17:57;100042.84;;;13.49;73.72
62201;BME280;48197;42.732;27.192;2023-02-23T11:20:32;100051.81;;;13.30;75.08
62201;BME280;48197;42.732;27.192;2023-02-23T11:26:05;100042.66;;;14.18;73.08
62201;BME280;48197;42.732;27.192;2023-02-23T11:28:45;100032.63;;;14.47;70.45
62201;BME280;48197;42.732;27.192;2023-02-23T11:31:21;100038.56;;;14.73;69.24
62201;BME280;48197;42.732;27.192;2023-02-23T11:33:58;100041.97;;;15.04;69.27
62201;BME280;48197;42.732;27.192;2023-02-23T11:36:27;100029.31;;;15.40;67.35
62201;BME280;48197;42.732;27.192;2023-02-23T11:42:34;100039.22;;;14.34;68.71
62201;BME280;48197;42.732;27.192;2023-02-23T11:44:35;100043.81;;;14.20;70.64
62201;BME280;48197;42.732;27.192;2023-02-23T11:47:01;100044.72;;;13.86;70.19
62201;BME280;48197;42.732;27.192;2023-02-23T11:49:32;100051.53;;;13.17;72.96
62201;BME280;48197;42.732;27.192;2023-02-23T11:52:01;100044.63;;;12.98;76.15
62201;BME280;48197;42.732;27.192;2023-02-23T11:54:29;100040.72;;;12.92;75.83
62201;BME280;48197;42.732;27.192;2023-02-23T11:56:56;100047.34;;;13.01;75.64
62201;BME280;48197;42.732;27.192;2023-02-23T11:59:26;100044.22;;;13.64;74.41
62201;BME280;48197;42.732;27.192;2023-02-23T12:02:02;100042.47;;;14.28;71.47
62201;BME280;48197;42.732;27.192;2023-02-23T12:04:31;100051.16;;;13.80;69.93
62201;BME280;48197;42.732;27.192;2023-02-23T12:07:19;100058.63;;;13.21;72.91
62201;BME280;48197;42.732;27.192;2023-02-23T12:09:48;100056.44;;;12.64;74.87
62201;BME280;48197;42.732;27.192;2023-02-23T12:12:17;100061.00;;;12.40;75.21
62201;BME280;48197;42.732;27.192;2023-02-23T12:14:58;100055.44;;;12.43;75.66
62201;BME280;48197;42.732;27.192;2023-02-23T12:17:27;100051.19;;;12.28;77.49
62201;BME280;48197;42.732;27.192;2023-02-23T12:20:01;100061.22;;;12.11;76.96
62201;BME280;48197;42.732;27.192;2023-02-23T12:22:32;100065.22;;;12.03;76.65
62201;BME280;48197;42.732;27.192;2023-02-23T12:25:20;100071.66;;;11.93;76.70
62201;BME280;48197;42.732;27.192;2023-02-23T12:30:52;100045.38;;;12.12;77.69
62201;BME280;48197;42.732;27.192;2023-02-23T12:33:27;100055.00;;;12.49;75.53
62201;BME280;48197;42.732;27.192;2023-02-23T12:36:00;100070.88;;;12.44;74.28
62201;BME280;48197;42.732;27.192;2023-02-23T12:38:43;100071.06;;;12.19;77.10
62201;BME280;48197;42.732;27.192;2023-02-23T12:41:15;100071.38;;;12.29;76.32
62201;BME280;48197;42.732;27.192;2023-02-23T12:43:46;100077.50;;;12.54;75.76
62201;BME280;48197;42.732;27.192;2023-02-23T12:46:23;100078.34;;;12.93;75.18
62201;BME280;48197;42.732;27.192;2023-02-23T12:51:35;100078.72;;;12.53;73.89
62201;BME280;48197;42.732;27.192;2023-02-23T12:54:03;100077.84;;;12.11;76.25
62201;BME280;48197;42.732;27.192;2023-02-23T12:56:48;100082.66;;;12.03;76.98
62201;BME280;48197;42.732;27.192;2023-02-23T13:01:56;100083.56;;;12.42;74.58
62201;BME280;48197;42.732;27.192;2023-02-23T13:04:38;100095.47;;;12.35;74.73
62201;BME280;48197;42.732;27.192;2023-02-23T13:09:53;100096.22;;;11.76;79.59
62201;BME280;48197;42.732;27.192;2023-02-23T13:12:35;100090.53;;;12.05;77.55
62201;BME280;48197;42.732;27.192;2023-02-23T13:20:00;100089.97;;;13.18;72.63
62201;BME280;48197;42.732;27.192;2023-02-23T13:22:34;100097.19;;;13.12;71.00
62201;BME280;48197;42.732;27.192;2023-02-23T13:25:10;100094.75;;;13.14;71.11
62201;BME280;48197;42.732;27.192;2023-02-23T13:27:45;100101.94;;;13.12;71.24
62201;BME280;48197;42.732;27.192;2023-02-23T13:30:15;100105.75;;;13.28;70.54
62201;BME280;48197;42.732;27.192;2023-02-23T13:32:43;100110.41;;;12.97;70.90
62201;BME280;48197;42.732;27.192;2023-02-23T13:35:12;100120.16;;;12.15;72.33
62201;BME280;48197;42.732;27.192;2023-02-23T13:37:42;100114.00;;;11.79;74.64
62201;BME280;48197;42.732;27.192;2023-02-23T13:48:26;100107.31;;;11.69;73.79
62201;BME280;48197;42.732;27.192;2023-02-23T13:51:01;100111.00;;;11.41;76.63
62201;BME280;48197;42.732;27.192;2023-02-23T13:53:40;100124.47;;;11.28;77.36
62201;BME280;48197;42.732;27.192;2023-02-23T13:56:16;100126.81;;;11.44;76.11
62201;BME280;48197;42.732;27.192;2023-02-23T13:58:45;100125.56;;;11.63;76.47
62201;BME280;48197;42.732;27.192;2023-02-23T14:01:20;100133.75;;;11.95;75.14
62201;BME280;48197;42.732;27.192;2023-02-23T14:03:56;100138.78;;;12.18;73.74
62201;BME280;48197;42.732;27.192;2023-02-23T14:06:24;100140.66;;;12.32;72.71
62201;BME280;48197;42.732;27.192;2023-02-23T14:24:18;100156.19;;;10.84;79.41
62201;BME280;48197;42.732;27.192;2023-02-23T14:29:25;100163.28;;;10.78;80.63
62201;BME280;48197;42.732;27.192;2023-02-23T14:32:26;100156.56;;;10.79;79.96
62201;BME280;48197;42.732;27.192;2023-02-23T14:34:52;100155.34;;;10.30;82.71
62201;BME280;48197;42.732;27.192;2023-02-23T14:37:30;100171.75;;;9.87;84.37
62201;BME280;48197;42.732;27.192;2023-02-23T14:40:10;100178.69;;;9.55;85.17
62201;BME280;48197;42.732;27.192;2023-02-23T14:42:37;100176.63;;;9.38;85.97
62201;BME280;48197;42.732;27.192;2023-02-23T14:45:26;100175.00;;;9.26;86.42
62201;BME280;48197;42.732;27.192;2023-02-23T14:48:09;100177.31;;;9.20;86.13
62201;BME280;48197;42.732;27.192;2023-02-23T14:50:38;100179.19;;;9.06;86.65
62201;BME280;48197;42.732;27.192;2023-02-23T14:53:09;100176.41;;;9.02;87.87
62201;BME280;48197;42.732;27.192;2023-02-23T14:55:40;100180.59;;;8.85;89.41
62201;BME280;48197;42.732;27.192;2023-02-23T14:58:21;100174.31;;;8.85;89.84
62201;BME280;48197;42.732;27.192;2023-02-23T15:00:48;100182.47;;;8.74;91.59
62201;BME280;48197;42.732;27.192;2023-02-23T15:03:17;100176.44;;;8.57;93.45
62201;BME280;48197;42.732;27.192;2023-02-23T15:05:44;100184.94;;;8.42;95.18
62201;BME280;48197;42.732;27.192;2023-02-23T15:08:13;100181.94;;;8.20;95.66
62201;BME280;48197;42.732;27.192;2023-02-23T15:10:42;100185.63;;;7.97;97.67
62201;BME280;48197;42.732;27.192;2023-02-23T15:13:10;100184.19;;;7.77;99.92
62201;BME280;48197;42.732;27.192;2023-02-23T15:15:39;100189.88;;;7.61;100.00
62201;BME280;48197;42.732;27.192;2023-02-23T15:18:13;100187.25;;;7.42;100.00
62201;BME280;48197;42.732;27.192;2023-02-23T15:20:46;100203.50;;;7.24;100.00
62201;BME280;48197;42.732;27.192;2023-02-23T15:23:13;100202.97;;;7.14;100.00
62201;BME280;48197;42.732;27.192;2023-02-23T15:25:43;100202.00;;;7.03;100.00
62201;BME280;48197;42.732;27.192;2023-02-23T15:28:23;100208.97;;;6.97;100.00
62201;BME280;48197;42.732;27.192;2023-02-23T15:30:51;100206.06;;;6.86;100.00
62201;BME280;48197;42.732;27.192;2023-02-23T15:33:18;100201.66;;;6.82;100.00
62201;BME280;48197;42.732;27.192;2023-02-23T15:36:05;100205.16;;;6.79;100.00
62201;BME280;48197;42.732;27.192;2023-02-23T15:38:42;100209.41;;;6.76;100.00
62201;BME280;48197;42.732;27.192;2023-02-23T15:41:30;100214.44;;;6.70;100.00
62201;BME280;48197;42.732;27.192;2023-02-23T15:44:19;100216.00;;;6.71;100.00
62201;BME280;48197;42.732;27.192;2023-02-23T15:47:08;100220.03;;;6.78;100.00
62201;BME280;48197;42.732;27.192;2023-02-23T15:49:38;100216.56;;;6.81;100.00
62201;BME280;48197;42.732;27.192;2023-02-23T15:52:17;100211.09;;;6.81;100.00
62201;BME280;48197;42.732;27.192;2023-02-23T15:54:50;100223.28;;;6.83;100.00
62201;BME280;48197;42.732;27.192;2023-02-23T15:57:25;100217.78;;;6.83;100.00
62201;BME280;48197;42.732;27.192;2023-02-23T16:03:24;100231.47;;;6.80;100.00
62201;BME280;48197;42.732;27.192;2023-02-23T16:05:57;100231.38;;;6.76;100.00
62201;BME280;48197;42.732;27.192;2023-02-23T16:08:28;100233.72;;;6.74;100.00
62201;BME280;48197;42.732;27.192;2023-02-23T16:14:21;100243.13;;;6.73;100.00
62201;BME280;48197;42.732;27.192;2023-02-23T16:16:51;100244.78;;;6.78;100.00
62201;BME280;48197;42.732;27.192;2023-02-23T16:19:18;100242.09;;;6.81;100.00